sensor_id;sensor_type;location;lat;lon;timestamp;P1;durP1;ratioP1;P2;durP2;ratioP2
5955;SDS011;3004;48.080;11.600;2023-03-13T05:34:33;70.30;;;6.77;;
5955;SDS011;3004;48.080;11.600;2023-03-13T05:37:02;70.30;;;6.73;;
5955;SDS011;3004;48.080;11.600;2023-03-13T05:39:37;70.00;;;6.80;;
5955;SDS011;3004;48.080;11.600;2023-03-13T05:42:08;70.10;;;6.60;;
5955;SDS011;3004;48.080;11.600;2023-03-13T05:44:36;70.07;;;7.00;;
5955;SDS011;3004;48.080;11.600;2023-03-13T05:47:03;70.17;;;6.60;;
5955;SDS011;3004;48.080;11.600;2023-03-13T05:49:32;69.80;;;6.57;;
5955;SDS011;3004;48.080;11.600;2023-03-13T05:51:59;70.00;;;6.57;;
5955;SDS011;3004;48.080;11.600;2023-03-13T05:54:29;70.20;;;6.57;;
5955;SDS011;3004;48.080;11.600;2023-03-13T05:56:57;70.17;;;6.50;;
5955;SDS011;3004;48.080;11.600;2023-03-13T05:59:24;70.10;;;6.47;;
5955;SDS011;3004;48.080;11.600;2023-03-13T06:01:52;71.73;;;7.90;;
5955;SDS011;3004;48.080;11.600;2023-03-13T06:04:22;69.90;;;6.03;;
5955;SDS011;3004;48.080;11.600;2023-03-13T06:06:50;69.50;;;5.90;;
5955;SDS011;3004;48.080;11.600;2023-03-13T06:09:18;69.67;;;5.90;;
5955;SDS011;3004;48.080;11.600;2023-03-13T06:11:45;69.60;;;5.80;;
5955;SDS011;3004;48.080;11.600;2023-03-13T06:14:13;69.57;;;5.83;;
5955;SDS011;3004;48.080;11.600;2023-03-13T06:16:43;69.20;;;5.73;;
5955;SDS011;3004;48.080;11.600;2023-03-13T06:19:11;69.30;;;5.67;;
5955;SDS011;3004;48.080;11.600;2023-03-13T06:21:38;69.57;;;5.80;;
5955;SDS011;3004;48.080;11.600;2023-03-13T06:24:07;69.67;;;5.70;;
5955;SDS011;3004;48.080;11.600;2023-03-13T06:26:34;69.70;;;5.70;;
5955;SDS011;3004;48.080;11.600;2023-03-13T06:29:03;69.47;;;5.63;;
5955;SDS011;3004;48.080;11.600;2023-03-13T06:31:31;69.20;;;5.43;;
5955;SDS011;3004;48.080;11.600;2023-03-13T06:33:58;69.20;;;5.50;;
5955;SDS011;3004;48.080;11.600;2023-03-13T06:36:28;68.87;;;5.20;;
5955;SDS011;3004;48.080;11.600;2023-03-13T06:38:55;68.60;;;5.13;;
5955;SDS011;3004;48.080;11.600;2023-03-13T06:41:24;68.87;;;5.20;;
5955;SDS011;3004;48.080;11.600;2023-03-13T06:43:51;68.70;;;5.13;;
5955;SDS011;3004;48.080;11.600;2023-03-13T06:46:21;69.27;;;5.17;;
5955;SDS011;3004;48.080;11.600;2023-03-13T06:48:49;69.00;;;5.13;;
5955;SDS011;3004;48.080;11.600;2023-03-13T06:51:18;69.30;;;5.27;;
5955;SDS011;3004;48.080;11.600;2023-03-13T06:53:46;69.23;;;5.17;;
5955;SDS011;3004;48.080;11.600;2023-03-13T06:56:16;68.90;;;5.20;;
5955;SDS011;3004;48.080;11.600;2023-03-13T06:58:48;68.97;;;5.20;;
5955;SDS011;3004;48.080;11.600;2023-03-13T07:01:16;69.20;;;5.17;;
5955;SDS011;3004;48.080;11.600;2023-03-13T07:03:43;69.27;;;5.50;;
5955;SDS011;3004;48.080;11.600;2023-03-13T07:06:11;69.03;;;5.17;;
5955;SDS011;3004;48.080;11.600;2023-03-13T07:08:38;68.93;;;5.07;;
5955;SDS011;3004;48.080;11.600;2023-03-13T07:11:06;69.10;;;5.03;;
5955;SDS011;3004;48.080;11.600;2023-03-13T07:13:35;68.47;;;4.80;;
5955;SDS011;3004;48.080;11.600;2023-03-13T07:16:07;68.30;;;4.60;;
5955;SDS011;3004;48.080;11.600;2023-03-13T07:18:34;68.37;;;4.60;;
5955;SDS011;3004;48.080;11.600;2023-03-13T07:21:02;67.97;;;4.30;;
5955;SDS011;3004;48.080;11.600;2023-03-13T07:23:30;68.00;;;4.33;;
5955;SDS011;3004;48.080;11.600;2023-03-13T07:25:58;68.10;;;4.37;;
5955;SDS011;3004;48.080;11.600;2023-03-13T07:28:28;67.60;;;4.20;;
5955;SDS011;3004;48.080;11.600;2023-03-13T07:31:01;67.57;;;3.90;;
5955;SDS011;3004;48.080;11.600;2023-03-13T07:33:34;67.60;;;3.70;;
5955;SDS011;3004;48.080;11.600;2023-03-13T07:36:01;66.57;;;3.27;;
5955;SDS011;3004;48.080;11.600;2023-03-13T07:38:28;66.00;;;3.17;;
5955;SDS011;3004;48.080;11.600;2023-03-13T07:40:56;66.40;;;2.93;;
5955;SDS011;3004;48.080;11.600;2023-03-13T07:43:23;65.90;;;2.90;;
5955;SDS011;3004;48.080;11.600;2023-03-13T07:45:59;65.20;;;2.70;;
5955;SDS011;3004;48.080;11.600;2023-03-13T07:48:28;65.37;;;2.57;;
5955;SDS011;3004;48.080;11.600;2023-03-13T07:51:02;65.43;;;2.20;;
5955;SDS011;3004;48.080;11.600;2023-03-13T07:53:32;65.77;;;2.20;;
5955;SDS011;3004;48.080;11.600;2023-03-13T07:56:00;65.60;;;2.00;;
5955;SDS011;3004;48.080;11.600;2023-03-13T07:58:28;65.77;;;1.90;;
5955;SDS011;3004;48.080;11.600;2023-03-13T08:00:58;66.03;;;2.10;;
5955;SDS011;3004;48.080;11.600;2023-03-13T08:03:26;65.87;;;1.80;;
5955;SDS011;3004;48.080;11.600;2023-03-13T08:05:58;65.80;;;1.70;;
5955;SDS011;3004;48.080;11.600;2023-03-13T08:08:28;65.60;;;1.70;;
5955;SDS011;3004;48.080;11.600;2023-03-13T08:11:00;67.77;;;3.00;;
5955;SDS011;3004;48.080;11.600;2023-03-13T08:13:28;65.87;;;1.50;;
5955;SDS011;3004;48.080;11.600;2023-03-13T08:16:02;66.13;;;1.70;;
5955;SDS011;3004;48.080;11.600;2023-03-13T08:18:30;68.37;;;3.20;;
5955;SDS011;3004;48.080;11.600;2023-03-13T08:21:02;66.30;;;1.30;;
5955;SDS011;3004;48.080;11.600;2023-03-13T08:23:31;66.27;;;1.40;;
5955;SDS011;3004;48.080;11.600;2023-03-13T08:26:02;66.27;;;1.30;;
5955;SDS011;3004;48.080;11.600;2023-03-13T08:28:29;66.20;;;1.40;;
5955;SDS011;3004;48.080;11.600;2023-03-13T08:30:57;66.27;;;1.20;;
5955;SDS011;3004;48.080;11.600;2023-03-13T08:33:24;66.00;;;1.30;;
5955;SDS011;3004;48.080;11.600;2023-03-13T08:35:51;66.10;;;1.30;;
5955;SDS011;3004;48.080;11.600;2023-03-13T08:38:19;66.17;;;1.30;;
5955;SDS011;3004;48.080;11.600;2023-03-13T08:40:47;65.87;;;1.40;;
5955;SDS011;3004;48.080;11.600;2023-03-13T08:43:16;65.87;;;1.50;;
5955;SDS011;3004;48.080;11.600;2023-03-13T08:45:43;65.80;;;1.80;;
5955;SDS011;3004;48.080;11.600;2023-03-13T08:48:11;65.77;;;2.00;;
5955;SDS011;3004;48.080;11.600;2023-03-13T08:50:38;65.87;;;2.30;;
5955;SDS011;3004;48.080;11.600;2023-03-13T08:53:15;66.53;;;2.60;;
5955;SDS011;3004;48.080;11.600;2023-03-13T08:55:42;65.80;;;2.30;;
5955;SDS011;3004;48.080;11.600;2023-03-13T08:58:11;65.90;;;2.20;;
5955;SDS011;3004;48.080;11.600;2023-03-13T09:00:41;65.50;;;2.30;;
5955;SDS011;3004;48.080;11.600;2023-03-13T09:03:08;65.67;;;2.30;;
5955;SDS011;3004;48.080;11.600;2023-03-13T09:05:37;65.77;;;2.20;;
5955;SDS011;3004;48.080;11.600;2023-03-13T09:08:05;65.97;;;2.10;;
5955;SDS011;3004;48.080;11.600;2023-03-13T09:10:32;65.87;;;2.00;;
5955;SDS011;3004;48.080;11.600;2023-03-13T09:12:59;65.67;;;1.80;;
5955;SDS011;3004;48.080;11.600;2023-03-13T09:18:34;66.10;;;1.60;;
5955;SDS011;3004;48.080;11.600;2023-03-13T09:21:04;66.17;;;1.50;;
5955;SDS011;3004;48.080;11.600;2023-03-13T09:23:35;66.53;;;1.40;;
5955;SDS011;3004;48.080;11.600;2023-03-13T09:26:02;66.37;;;1.30;;
5955;SDS011;3004;48.080;11.600;2023-03-13T09:28:30;66.40;;;1.30;;
5955;SDS011;3004;48.080;11.600;2023-03-13T09:31:04;66.60;;;1.30;;
5955;SDS011;3004;48.080;11.600;2023-03-13T09:33:32;66.67;;;1.20;;
5955;SDS011;3004;48.080;11.600;2023-03-13T09:36:02;66.53;;;1.30;;
5955;SDS011;3004;48.080;11.600;2023-03-13T09:38:30;66.40;;;1.30;;
5955;SDS011;3004;48.080;11.600;2023-03-13T09:41:00;66.97;;;1.30;;
5955;SDS011;3004;48.080;11.600;2023-03-13T09:43:31;66.87;;;1.30;;
5955;SDS011;3004;48.080;11.600;2023-03-13T09:46:03;67.17;;;1.30;;
5955;SDS011;3004;48.080;11.600;2023-03-13T09:48:35;67.20;;;1.30;;
5955;SDS011;3004;48.080;11.600;2023-03-13T09:51:10;80.50;;;2.47;;
5955;SDS011;3004;48.080;11.600;2023-03-13T10:11:42;67.27;;;1.20;;
5955;SDS011;3004;48.080;11.600;2023-03-13T10:14:21;67.53;;;1.30;;
5955;SDS011;3004;48.080;11.600;2023-03-13T10:16:50;67.73;;;1.30;;
5955;SDS011;3004;48.080;11.600;2023-03-13T10:19:22;68.20;;;1.93;;
5955;SDS011;3004;48.080;11.600;2023-03-13T10:21:52;67.27;;;1.40;;
5955;SDS011;3004;48.080;11.600;2023-03-13T10:24:22;67.37;;;1.20;;
5955;SDS011;3004;48.080;11.600;2023-03-13T10:26:56;67.77;;;1.30;;
5955;SDS011;3004;48.080;11.600;2023-03-13T10:29:24;67.67;;;1.20;;
5955;SDS011;3004;48.080;11.600;2023-03-13T10:31:56;69.97;;;1.97;;
5955;SDS011;3004;48.080;11.600;2023-03-13T10:34:24;67.67;;;1.20;;
5955;SDS011;3004;48.080;11.600;2023-03-13T10:36:54;67.50;;;1.20;;
5955;SDS011;3004;48.080;11.600;2023-03-13T10:39:23;67.30;;;1.20;;
5955;SDS011;3004;48.080;11.600;2023-03-13T10:41:55;67.70;;;1.20;;
5955;SDS011;3004;48.080;11.600;2023-03-13T10:44:29;67.40;;;1.30;;
5955;SDS011;3004;48.080;11.600;2023-03-13T10:47:00;67.77;;;1.30;;
5955;SDS011;3004;48.080;11.600;2023-03-13T10:49:30;71.47;;;2.90;;
5955;SDS011;3004;48.080;11.600;2023-03-13T10:51:59;67.70;;;1.10;;
5955;SDS011;3004;48.080;11.600;2023-03-13T10:54:27;67.37;;;1.10;;
5955;SDS011;3004;48.080;11.600;2023-03-13T10:59:48;67.63;;;1.33;;
5955;SDS011;3004;48.080;11.600;2023-03-13T11:02:19;67.70;;;1.20;;
5955;SDS011;3004;48.080;11.600;2023-03-13T11:04:54;67.53;;;1.20;;
5955;SDS011;3004;48.080;11.600;2023-03-13T11:07:24;67.40;;;1.30;;
5955;SDS011;3004;48.080;11.600;2023-03-13T11:09:58;67.80;;;1.27;;
5955;SDS011;3004;48.080;11.600;2023-03-13T11:12:47;69.40;;;1.43;;
5955;SDS011;3004;48.080;11.600;2023-03-13T11:15:28;67.80;;;1.20;;
5955;SDS011;3004;48.080;11.600;2023-03-13T11:17:58;67.50;;;1.40;;
5955;SDS011;3004;48.080;11.600;2023-03-13T11:20:29;67.40;;;1.30;;
5955;SDS011;3004;48.080;11.600;2023-03-13T11:23:16;67.67;;;1.10;;
5955;SDS011;3004;48.080;11.600;2023-03-13T11:25:48;67.63;;;1.20;;
5955;SDS011;3004;48.080;11.600;2023-03-13T11:28:27;67.60;;;1.17;;
5955;SDS011;3004;48.080;11.600;2023-03-13T11:31:10;67.70;;;1.10;;
5955;SDS011;3004;48.080;11.600;2023-03-13T11:33:50;68.07;;;1.20;;
5955;SDS011;3004;48.080;11.600;2023-03-13T11:36:31;68.03;;;1.20;;
5955;SDS011;3004;48.080;11.600;2023-03-13T11:39:02;67.97;;;1.30;;
5955;SDS011;3004;48.080;11.600;2023-03-13T11:41:37;67.70;;;1.50;;
5955;SDS011;3004;48.080;11.600;2023-03-13T11:44:15;68.00;;;1.17;;
5955;SDS011;3004;48.080;11.600;2023-03-13T11:52:27;67.70;;;1.10;;
5955;SDS011;3004;48.080;11.600;2023-03-13T11:57:46;68.13;;;1.20;;
5955;SDS011;3004;48.080;11.600;2023-03-13T12:00:20;67.63;;;1.20;;
5955;SDS011;3004;48.080;11.600;2023-03-13T12:02:58;68.07;;;1.20;;
5955;SDS011;3004;48.080;11.600;2023-03-13T12:05:44;68.10;;;1.20;;
5955;SDS011;3004;48.080;11.600;2023-03-13T12:08:29;67.97;;;1.20;;
5955;SDS011;3004;48.080;11.600;2023-03-13T12:11:22;68.33;;;1.20;;
5955;SDS011;3004;48.080;11.600;2023-03-13T12:14:08;68.00;;;1.20;;
5955;SDS011;3004;48.080;11.600;2023-03-13T12:16:38;68.03;;;1.30;;
5955;SDS011;3004;48.080;11.600;2023-03-13T12:20:22;68.07;;;1.20;;
5955;SDS011;3004;48.080;11.600;2023-03-13T12:22:16;75.53;;;3.87;;
5955;SDS011;3004;48.080;11.600;2023-03-13T12:25:03;67.80;;;1.20;;
5955;SDS011;3004;48.080;11.600;2023-03-13T12:27:46;68.10;;;1.30;;
5955;SDS011;3004;48.080;11.600;2023-03-13T12:30:35;68.13;;;1.10;;
5955;SDS011;3004;48.080;11.600;2023-03-13T12:33:16;67.90;;;1.20;;
5955;SDS011;3004;48.080;11.600;2023-03-13T12:36:07;68.10;;;1.63;;
5955;SDS011;3004;48.080;11.600;2023-03-13T12:38:40;68.00;;;1.20;;
5955;SDS011;3004;48.080;11.600;2023-03-13T12:41:19;68.17;;;1.20;;
5955;SDS011;3004;48.080;11.600;2023-03-13T12:43:57;68.20;;;1.40;;
5955;SDS011;3004;48.080;11.600;2023-03-13T12:46:45;68.07;;;1.13;;
5955;SDS011;3004;48.080;11.600;2023-03-13T12:49:38;68.07;;;1.20;;
5955;SDS011;3004;48.080;11.600;2023-03-13T12:58:24;68.30;;;1.20;;
5955;SDS011;3004;48.080;11.600;2023-03-13T13:01:06;68.50;;;1.27;;
5955;SDS011;3004;48.080;11.600;2023-03-13T13:03:34;68.20;;;1.20;;
5955;SDS011;3004;48.080;11.600;2023-03-13T13:06:21;68.47;;;1.50;;
5955;SDS011;3004;48.080;11.600;2023-03-13T13:09:05;68.87;;;1.67;;
5955;SDS011;3004;48.080;11.600;2023-03-13T13:11:46;74.80;;;2.27;;
5955;SDS011;3004;48.080;11.600;2023-03-13T13:17:11;84.20;;;3.30;;
5955;SDS011;3004;48.080;11.600;2023-03-13T13:22:52;68.17;;;1.20;;
5955;SDS011;3004;48.080;11.600;2023-03-13T13:25:27;67.93;;;1.20;;
5955;SDS011;3004;48.080;11.600;2023-03-13T13:27:55;68.37;;;1.30;;
5955;SDS011;3004;48.080;11.600;2023-03-13T13:30:29;68.07;;;1.20;;
5955;SDS011;3004;48.080;11.600;2023-03-13T13:33:37;68.27;;;1.20;;
5955;SDS011;3004;48.080;11.600;2023-03-13T13:38:52;69.40;;;2.57;;
5955;SDS011;3004;48.080;11.600;2023-03-13T13:41:33;68.47;;;1.53;;
5955;SDS011;3004;48.080;11.600;2023-03-13T13:46:48;68.17;;;1.30;;
5955;SDS011;3004;48.080;11.600;2023-03-13T13:52:34;68.47;;;1.10;;
5955;SDS011;3004;48.080;11.600;2023-03-13T13:57:44;67.80;;;1.20;;
5955;SDS011;3004;48.080;11.600;2023-03-13T14:00:15;68.10;;;1.20;;
5955;SDS011;3004;48.080;11.600;2023-03-13T14:02:54;68.27;;;1.40;;
5955;SDS011;3004;48.080;11.600;2023-03-13T14:05:31;68.43;;;1.30;;
5955;SDS011;3004;48.080;11.600;2023-03-13T14:08:02;68.40;;;1.30;;
5955;SDS011;3004;48.080;11.600;2023-03-13T14:10:35;68.10;;;1.30;;
5955;SDS011;3004;48.080;11.600;2023-03-13T14:13:15;68.77;;;1.57;;
5955;SDS011;3004;48.080;11.600;2023-03-13T14:15:45;68.20;;;1.20;;
5955;SDS011;3004;48.080;11.600;2023-03-13T14:18:16;68.30;;;1.10;;
5955;SDS011;3004;48.080;11.600;2023-03-13T14:20:52;67.67;;;1.10;;
5955;SDS011;3004;48.080;11.600;2023-03-13T14:23:43;71.63;;;2.80;;
5955;SDS011;3004;48.080;11.600;2023-03-13T14:26:12;68.37;;;1.20;;
5955;SDS011;3004;48.080;11.600;2023-03-13T14:28:43;68.20;;;1.20;;
5955;SDS011;3004;48.080;11.600;2023-03-13T14:31:26;68.27;;;1.30;;
5955;SDS011;3004;48.080;11.600;2023-03-13T14:34:13;68.43;;;1.30;;
5955;SDS011;3004;48.080;11.600;2023-03-13T14:36:44;68.10;;;1.37;;
5955;SDS011;3004;48.080;11.600;2023-03-13T14:39:16;68.87;;;1.53;;
5955;SDS011;3004;48.080;11.600;2023-03-13T14:41:45;68.57;;;1.20;;
5955;SDS011;3004;48.080;11.600;2023-03-13T14:44:14;68.10;;;1.20;;
5955;SDS011;3004;48.080;11.600;2023-03-13T14:46:58;68.00;;;1.20;;
5955;SDS011;3004;48.080;11.600;2023-03-13T14:49:27;68.00;;;1.30;;
5955;SDS011;3004;48.080;11.600;2023-03-13T14:51:57;69.50;;;1.97;;
5955;SDS011;3004;48.080;11.600;2023-03-13T14:54:36;68.27;;;1.20;;
5955;SDS011;3004;48.080;11.600;2023-03-13T14:57:24;68.37;;;1.30;;
5955;SDS011;3004;48.080;11.600;2023-03-13T15:02:51;68.27;;;1.23;;
5955;SDS011;3004;48.080;11.600;2023-03-13T15:05:45;67.63;;;1.20;;
5955;SDS011;3004;48.080;11.600;2023-03-13T15:08:20;68.13;;;1.20;;
5955;SDS011;3004;48.080;11.600;2023-03-13T15:10:55;68.27;;;1.30;;
5955;SDS011;3004;48.080;11.600;2023-03-13T15:13:25;68.33;;;1.20;;
5955;SDS011;3004;48.080;11.600;2023-03-13T15:15:55;68.27;;;1.40;;
5955;SDS011;3004;48.080;11.600;2023-03-13T15:18:23;68.00;;;1.40;;
5955;SDS011;3004;48.080;11.600;2023-03-13T15:21:18;68.20;;;1.10;;
5955;SDS011;3004;48.080;11.600;2023-03-13T15:23:47;67.87;;;1.20;;
5955;SDS011;3004;48.080;11.600;2023-03-13T15:26:27;67.50;;;1.20;;
5955;SDS011;3004;48.080;11.600;2023-03-13T15:28:54;67.67;;;1.13;;
5955;SDS011;3004;48.080;11.600;2023-03-13T15:31:27;75.53;;;2.17;;
5955;SDS011;3004;48.080;11.600;2023-03-13T15:33:56;67.97;;;1.10;;
5955;SDS011;3004;48.080;11.600;2023-03-13T15:36:24;67.77;;;1.20;;
5955;SDS011;3004;48.080;11.600;2023-03-13T15:38:55;67.87;;;1.30;;
5955;SDS011;3004;48.080;11.600;2023-03-13T15:41:30;67.60;;;1.20;;
5955;SDS011;3004;48.080;11.600;2023-03-13T15:44:20;67.80;;;1.20;;
5955;SDS011;3004;48.080;11.600;2023-03-13T15:46:50;68.07;;;1.20;;
5955;SDS011;3004;48.080;11.600;2023-03-13T15:49:17;67.93;;;1.10;;
5955;SDS011;3004;48.080;11.600;2023-03-13T15:51:45;67.60;;;1.20;;
5955;SDS011;3004;48.080;11.600;2023-03-13T15:54:21;67.70;;;1.37;;
5955;SDS011;3004;48.080;11.600;2023-03-13T15:56:56;67.80;;;1.30;;
5955;SDS011;3004;48.080;11.600;2023-03-13T15:59:24;67.80;;;1.23;;
5955;SDS011;3004;48.080;11.600;2023-03-13T16:02:02;67.77;;;1.10;;
5955;SDS011;3004;48.080;11.600;2023-03-13T16:07:21;67.60;;;1.20;;
5955;SDS011;3004;48.080;11.600;2023-03-13T16:10:56;67.63;;;1.20;;
5955;SDS011;3004;48.080;11.600;2023-03-13T16:13:48;67.67;;;1.20;;
5955;SDS011;3004;48.080;11.600;2023-03-13T16:16:26;68.80;;;2.30;;
5955;SDS011;3004;48.080;11.600;2023-03-13T16:19:07;67.47;;;1.10;;
5955;SDS011;3004;48.080;11.600;2023-03-13T16:21:42;67.60;;;1.20;;
5955;SDS011;3004;48.080;11.600;2023-03-13T16:24:12;67.67;;;1.20;;
5955;SDS011;3004;48.080;11.600;2023-03-13T16:29:49;67.10;;;1.20;;
5955;SDS011;3004;48.080;11.600;2023-03-13T16:32:22;67.77;;;1.20;;
5955;SDS011;3004;48.080;11.600;2023-03-13T16:34:52;67.37;;;1.20;;
5955;SDS011;3004;48.080;11.600;2023-03-13T16:37:29;67.67;;;1.20;;
5955;SDS011;3004;48.080;11.600;2023-03-13T16:40:01;67.10;;;1.20;;
5955;SDS011;3004;48.080;11.600;2023-03-13T16:42:31;67.10;;;1.20;;
5955;SDS011;3004;48.080;11.600;2023-03-13T16:45:02;67.33;;;1.40;;
5955;SDS011;3004;48.080;11.600;2023-03-13T16:47:30;67.47;;;1.20;;
5955;SDS011;3004;48.080;11.600;2023-03-13T16:49:59;67.00;;;1.20;;
5955;SDS011;3004;48.080;11.600;2023-03-13T16:52:27;67.37;;;1.10;;
5955;SDS011;3004;48.080;11.600;2023-03-13T16:54:54;67.43;;;1.10;;
5955;SDS011;3004;48.080;11.600;2023-03-13T16:57:23;67.60;;;1.30;;
5955;SDS011;3004;48.080;11.600;2023-03-13T16:59:51;67.30;;;1.20;;
5955;SDS011;3004;48.080;11.600;2023-03-13T17:02:21;67.77;;;1.50;;
5955;SDS011;3004;48.080;11.600;2023-03-13T17:04:52;67.20;;;1.10;;
5955;SDS011;3004;48.080;11.600;2023-03-13T17:07:20;67.37;;;1.20;;
5955;SDS011;3004;48.080;11.600;2023-03-13T17:12:42;67.43;;;1.20;;
5955;SDS011;3004;48.080;11.600;2023-03-13T17:21:23;67.43;;;1.10;;
5955;SDS011;3004;48.080;11.600;2023-03-13T17:23:51;67.90;;;1.37;;
5955;SDS011;3004;48.080;11.600;2023-03-13T17:35:38;66.90;;;1.10;;
5955;SDS011;3004;48.080;11.600;2023-03-13T17:38:13;67.43;;;1.20;;
5955;SDS011;3004;48.080;11.600;2023-03-13T17:46:21;67.00;;;1.20;;
5955;SDS011;3004;48.080;11.600;2023-03-13T17:49:08;67.30;;;1.33;;
5955;SDS011;3004;48.080;11.600;2023-03-13T17:54:44;67.00;;;1.20;;
5955;SDS011;3004;48.080;11.600;2023-03-13T17:57:13;67.10;;;1.20;;
5955;SDS011;3004;48.080;11.600;2023-03-13T17:59:45;67.33;;;1.30;;
5955;SDS011;3004;48.080;11.600;2023-03-13T18:02:18;67.33;;;1.20;;
5955;SDS011;3004;48.080;11.600;2023-03-13T18:05:12;75.40;;;2.37;;
5955;SDS011;3004;48.080;11.600;2023-03-13T18:07:53;67.27;;;1.20;;
5955;SDS011;3004;48.080;11.600;2023-03-13T18:10:26;67.63;;;1.60;;
5955;SDS011;3004;48.080;11.600;2023-03-13T18:12:55;67.27;;;1.17;;
5955;SDS011;3004;48.080;11.600;2023-03-13T18:15:23;67.47;;;1.30;;
5955;SDS011;3004;48.080;11.600;2023-03-13T18:17:51;69.67;;;1.70;;
5955;SDS011;3004;48.080;11.600;2023-03-13T18:20:21;69.03;;;2.70;;
5955;SDS011;3004;48.080;11.600;2023-03-13T18:22:49;67.07;;;1.30;;
5955;SDS011;3004;48.080;11.600;2023-03-13T18:25:20;66.90;;;1.20;;
5955;SDS011;3004;48.080;11.600;2023-03-13T18:27:49;66.70;;;1.20;;
5955;SDS011;3004;48.080;11.600;2023-03-13T18:30:20;67.03;;;1.20;;
5955;SDS011;3004;48.080;11.600;2023-03-13T18:38:56;66.67;;;1.30;;
5955;SDS011;3004;48.080;11.600;2023-03-13T18:41:24;66.90;;;1.30;;
5955;SDS011;3004;48.080;11.600;2023-03-13T18:43:53;66.87;;;1.30;;
5955;SDS011;3004;48.080;11.600;2023-03-13T18:46:21;66.30;;;1.30;;
5955;SDS011;3004;48.080;11.600;2023-03-13T18:48:50;66.70;;;1.40;;
5955;SDS011;3004;48.080;11.600;2023-03-13T18:51:18;66.87;;;1.57;;
5955;SDS011;3004;48.080;11.600;2023-03-13T18:59:54;66.87;;;1.40;;
5955;SDS011;3004;48.080;11.600;2023-03-13T19:02:25;66.97;;;1.60;;
5955;SDS011;3004;48.080;11.600;2023-03-13T19:04:52;66.60;;;1.30;;
5955;SDS011;3004;48.080;11.600;2023-03-13T19:07:23;67.13;;;1.40;;
5955;SDS011;3004;48.080;11.600;2023-03-13T19:09:52;66.30;;;1.30;;
5955;SDS011;3004;48.080;11.600;2023-03-13T19:12:19;66.63;;;1.30;;
5955;SDS011;3004;48.080;11.600;2023-03-13T19:14:47;66.70;;;1.30;;
5955;SDS011;3004;48.080;11.600;2023-03-13T19:17:31;66.97;;;1.30;;
5955;SDS011;3004;48.080;11.600;2023-03-13T19:20:01;66.37;;;1.40;;
5955;SDS011;3004;48.080;11.600;2023-03-13T19:22:29;66.77;;;1.23;;
5955;SDS011;3004;48.080;11.600;2023-03-13T19:25:11;66.40;;;1.20;;
5955;SDS011;3004;48.080;11.600;2023-03-13T19:27:41;66.47;;;1.20;;
5955;SDS011;3004;48.080;11.600;2023-03-13T19:30:24;66.37;;;1.20;;
5955;SDS011;3004;48.080;11.600;2023-03-13T19:32:54;71.20;;;2.57;;
5955;SDS011;3004;48.080;11.600;2023-03-13T19:54:00;66.37;;;1.30;;
5955;SDS011;3004;48.080;11.600;2023-03-13T19:59:32;66.47;;;1.40;;
5955;SDS011;3004;48.080;11.600;2023-03-13T20:02:04;66.43;;;1.30;;
5955;SDS011;3004;48.080;11.600;2023-03-13T20:04:33;67.60;;;1.60;;
5955;SDS011;3004;48.080;11.600;2023-03-13T20:07:02;67.20;;;2.03;;
5955;SDS011;3004;48.080;11.600;2023-03-13T20:09:33;66.63;;;1.40;;
5955;SDS011;3004;48.080;11.600;2023-03-13T20:12:01;66.50;;;1.40;;
5955;SDS011;3004;48.080;11.600;2023-03-13T20:14:34;66.37;;;1.47;;
5955;SDS011;3004;48.080;11.600;2023-03-13T20:17:10;66.47;;;1.40;;
5955;SDS011;3004;48.080;11.600;2023-03-13T20:19:38;66.17;;;1.40;;
5955;SDS011;3004;48.080;11.600;2023-03-13T20:22:05;66.43;;;1.30;;
5955;SDS011;3004;48.080;11.600;2023-03-13T20:24:46;67.03;;;1.73;;
5955;SDS011;3004;48.080;11.600;2023-03-13T20:27:13;66.10;;;1.30;;
5955;SDS011;3004;48.080;11.600;2023-03-13T20:29:41;66.47;;;1.30;;
5955;SDS011;3004;48.080;11.600;2023-03-13T20:32:08;66.37;;;1.30;;
5955;SDS011;3004;48.080;11.600;2023-03-13T20:34:37;66.30;;;1.20;;
5955;SDS011;3004;48.080;11.600;2023-03-13T20:37:06;67.17;;;2.30;;
5955;SDS011;3004;48.080;11.600;2023-03-13T20:39:34;66.10;;;1.30;;
5955;SDS011;3004;48.080;11.600;2023-03-13T20:42:04;66.17;;;1.43;;
5955;SDS011;3004;48.080;11.600;2023-03-13T20:44:35;66.30;;;1.30;;
5955;SDS011;3004;48.080;11.600;2023-03-13T20:47:02;66.37;;;1.30;;
5955;SDS011;3004;48.080;11.600;2023-03-13T20:49:29;66.37;;;1.40;;
5955;SDS011;3004;48.080;11.600;2023-03-13T20:51:58;66.10;;;1.40;;
5955;SDS011;3004;48.080;11.600;2023-03-13T20:54:28;66.10;;;1.47;;
5955;SDS011;3004;48.080;11.600;2023-03-13T20:56:55;66.70;;;1.67;;
5955;SDS011;3004;48.080;11.600;2023-03-13T20:59:24;66.37;;;1.80;;
5955;SDS011;3004;48.080;11.600;2023-03-13T21:01:54;66.97;;;2.97;;
5955;SDS011;3004;48.080;11.600;2023-03-13T21:04:21;74.20;;;4.30;;
5955;SDS011;3004;48.080;11.600;2023-03-13T21:06:49;66.40;;;1.90;;
5955;SDS011;3004;48.080;11.600;2023-03-13T21:09:16;66.37;;;2.07;;
5955;SDS011;3004;48.080;11.600;2023-03-13T21:11:43;66.17;;;2.00;;
5955;SDS011;3004;48.080;11.600;2023-03-13T21:14:11;67.80;;;2.70;;
5955;SDS011;3004;48.080;11.600;2023-03-13T21:16:39;66.07;;;2.47;;
5955;SDS011;3004;48.080;11.600;2023-03-13T21:19:07;66.73;;;2.63;;
5955;SDS011;3004;48.080;11.600;2023-03-13T21:21:36;66.63;;;2.50;;
5955;SDS011;3004;48.080;11.600;2023-03-13T21:24:03;67.27;;;2.50;;
5955;SDS011;3004;48.080;11.600;2023-03-13T21:27:18;65.63;;;2.00;;
5955;SDS011;3004;48.080;11.600;2023-03-13T21:29:45;66.37;;;2.10;;
5955;SDS011;3004;48.080;11.600;2023-03-13T21:32:19;80.83;;;3.13;;
5955;SDS011;3004;48.080;11.600;2023-03-13T21:37:53;67.40;;;3.40;;
5955;SDS011;3004;48.080;11.600;2023-03-13T21:40:20;66.23;;;2.07;;
5955;SDS011;3004;48.080;11.600;2023-03-13T21:42:48;66.33;;;2.10;;
5955;SDS011;3004;48.080;11.600;2023-03-13T21:45:15;66.77;;;2.67;;
5955;SDS011;3004;48.080;11.600;2023-03-13T21:47:44;85.53;;;4.57;;
5955;SDS011;3004;48.080;11.600;2023-03-13T21:50:14;66.00;;;2.10;;
5955;SDS011;3004;48.080;11.600;2023-03-13T21:52:41;66.23;;;2.20;;
5955;SDS011;3004;48.080;11.600;2023-03-13T21:55:10;65.87;;;2.03;;
5955;SDS011;3004;48.080;11.600;2023-03-13T21:57:38;66.27;;;2.00;;
5955;SDS011;3004;48.080;11.600;2023-03-13T22:00:06;66.27;;;1.90;;
5955;SDS011;3004;48.080;11.600;2023-03-13T22:02:33;66.17;;;1.90;;
5955;SDS011;3004;48.080;11.600;2023-03-13T22:05:03;66.20;;;1.90;;
5955;SDS011;3004;48.080;11.600;2023-03-13T22:07:30;65.67;;;1.80;;
5955;SDS011;3004;48.080;11.600;2023-03-13T22:09:57;66.13;;;1.90;;
5955;SDS011;3004;48.080;11.600;2023-03-13T22:12:28;67.07;;;2.27;;
5955;SDS011;3004;48.080;11.600;2023-03-13T22:14:55;66.27;;;1.80;;
5955;SDS011;3004;48.080;11.600;2023-03-13T22:17:22;72.90;;;3.13;;
5955;SDS011;3004;48.080;11.600;2023-03-13T22:19:51;66.63;;;1.30;;
5955;SDS011;3004;48.080;11.600;2023-03-13T22:25:25;66.70;;;1.30;;
5955;SDS011;3004;48.080;11.600;2023-03-13T22:28:04;66.60;;;1.30;;
5955;SDS011;3004;48.080;11.600;2023-03-13T22:30:39;66.80;;;1.23;;
5955;SDS011;3004;48.080;11.600;2023-03-13T22:36:31;67.30;;;1.70;;
5955;SDS011;3004;48.080;11.600;2023-03-13T22:39:02;66.70;;;1.30;;
5955;SDS011;3004;48.080;11.600;2023-03-13T22:41:48;66.70;;;1.30;;
5955;SDS011;3004;48.080;11.600;2023-03-13T22:44:35;66.80;;;1.30;;
5955;SDS011;3004;48.080;11.600;2023-03-13T22:47:26;66.97;;;1.40;;
5955;SDS011;3004;48.080;11.600;2023-03-13T23:02:36;66.83;;;1.30;;
5955;SDS011;3004;48.080;11.600;2023-03-13T23:05:04;66.90;;;1.33;;
5955;SDS011;3004;48.080;11.600;2023-03-13T23:07:34;67.50;;;1.80;;
5955;SDS011;3004;48.080;11.600;2023-03-13T23:10:05;66.53;;;1.50;;
5955;SDS011;3004;48.080;11.600;2023-03-13T23:12:33;67.03;;;1.50;;
5955;SDS011;3004;48.080;11.600;2023-03-13T23:15:02;66.83;;;1.70;;
5955;SDS011;3004;48.080;11.600;2023-03-13T23:17:34;66.87;;;1.60;;
5955;SDS011;3004;48.080;11.600;2023-03-13T23:20:01;66.83;;;1.70;;